createdAt,value
2019-03-09T00:00:24.565Z,995.71
2019-03-09T00:01:35.309Z,995.71
2019-03-09T00:02:46.016Z,995.67
2019-03-09T00:03:56.739Z,995.67
2019-03-09T00:05:07.635Z,995.65
2019-03-09T00:06:18.361Z,995.64
2019-03-09T00:07:29.090Z,995.67
2019-03-09T00:08:39.814Z,995.69
2019-03-09T00:09:50.534Z,995.63
2019-03-09T00:11:01.248Z,995.60
2019-03-09T00:12:11.971Z,995.60
2019-03-09T00:13:22.703Z,995.59
2019-03-09T00:14:33.427Z,995.53
2019-03-09T00:15:44.168Z,995.58
2019-03-09T00:16:54.890Z,995.59
2019-03-09T00:18:05.607Z,995.55
2019-03-09T00:19:16.341Z,995.58
2019-03-09T00:20:27.055Z,995.63
2019-03-09T00:21:37.771Z,995.62
2019-03-09T00:22:48.497Z,995.65
2019-03-09T00:23:59.226Z,995.64
2019-03-09T00:25:09.943Z,995.60
2019-03-09T00:26:21.676Z,995.53
2019-03-09T00:27:32.406Z,995.50
2019-03-09T00:28:43.132Z,995.47
2019-03-09T00:29:53.852Z,995.42
2019-03-09T00:31:04.568Z,995.43
2019-03-09T00:32:15.302Z,995.43
2019-03-09T00:33:26.015Z,995.41
2019-03-09T00:34:36.736Z,995.39
2019-03-09T00:35:47.635Z,995.37
2019-03-09T00:36:58.376Z,995.35
2019-03-09T00:38:09.116Z,995.32
2019-03-09T00:39:19.845Z,995.31
2019-03-09T00:40:30.571Z,995.30
2019-03-09T00:41:41.292Z,995.32
2019-03-09T00:42:52.217Z,995.34
2019-03-09T00:44:02.946Z,995.32
2019-03-09T00:45:13.670Z,995.31
2019-03-09T00:46:24.399Z,995.33
2019-03-09T00:47:35.139Z,995.31
2019-03-09T00:48:45.858Z,995.22
2019-03-09T00:49:56.588Z,995.15
2019-03-09T00:51:07.307Z,995.09
2019-03-09T00:52:18.043Z,995.02
2019-03-09T00:53:28.771Z,994.94
2019-03-09T00:54:40.504Z,994.90
2019-03-09T00:55:51.234Z,994.83
2019-03-09T00:57:01.963Z,994.80
2019-03-09T00:58:12.694Z,994.69
2019-03-09T00:59:23.419Z,994.68
2019-03-09T01:00:34.142Z,994.63
2019-03-09T01:01:44.874Z,994.54
2019-03-09T01:02:55.610Z,994.48
2019-03-09T01:04:06.336Z,994.46
2019-03-09T01:05:17.071Z,994.40
2019-03-09T01:06:27.795Z,994.35
2019-03-09T01:07:38.528Z,994.35
2019-03-09T01:08:49.261Z,994.27
2019-03-09T01:10:00.993Z,994.32
2019-03-09T01:11:11.728Z,994.26
2019-03-09T01:12:22.448Z,994.22
2019-03-09T01:13:33.191Z,994.15
2019-03-09T01:14:43.925Z,994.13
2019-03-09T01:15:54.662Z,994.08
2019-03-09T01:17:05.384Z,993.99
2019-03-09T01:18:16.134Z,993.93
2019-03-09T01:19:26.857Z,993.89
2019-03-09T01:20:37.597Z,993.90
2019-03-09T01:21:48.323Z,993.86
2019-03-09T01:22:59.058Z,993.81
2019-03-09T01:24:09.792Z,993.76
2019-03-09T01:25:20.515Z,993.75
2019-03-09T01:26:31.250Z,993.74
2019-03-09T01:27:41.983Z,993.73
2019-03-09T01:28:52.711Z,993.68
2019-03-09T01:30:03.442Z,993.53
2019-03-09T01:31:14.174Z,993.51
2019-03-09T01:32:24.903Z,993.42
2019-03-09T01:33:35.830Z,993.41
2019-03-09T01:34:46.567Z,993.33
2019-03-09T01:35:57.291Z,993.23
2019-03-09T01:37:08.014Z,993.20
2019-03-09T01:38:18.745Z,993.17
2019-03-09T01:39:29.648Z,993.14
2019-03-09T01:40:40.371Z,993.08
2019-03-09T01:41:52.105Z,993.01
2019-03-09T01:43:02.822Z,992.96
2019-03-09T01:44:13.561Z,992.89
2019-03-09T01:45:24.285Z,992.94
2019-03-09T01:46:35.010Z,992.83
2019-03-09T01:47:45.737Z,992.77
2019-03-09T01:48:56.467Z,992.77
2019-03-09T01:50:07.194Z,992.75
2019-03-09T01:51:17.916Z,992.69
2019-03-09T01:52:28.645Z,992.60
2019-03-09T01:53:39.379Z,992.66
2019-03-09T01:54:50.105Z,992.64
2019-03-09T01:56:00.838Z,992.56
2019-03-09T01:57:11.570Z,992.56
2019-03-09T01:58:22.301Z,992.55
2019-03-09T01:59:33.032Z,992.59
2019-03-09T02:00:43.761Z,992.53
2019-03-09T02:01:54.495Z,992.55
2019-03-09T02:03:05.220Z,992.58
2019-03-09T02:04:15.955Z,992.57
2019-03-09T02:05:26.685Z,992.54
2019-03-09T02:06:37.410Z,992.56
2019-03-09T02:07:48.145Z,992.56
2019-03-09T02:08:58.882Z,992.48
2019-03-09T02:10:09.615Z,992.39
2019-03-09T02:11:20.340Z,992.40
2019-03-09T02:12:31.068Z,992.36
2019-03-09T02:13:41.794Z,992.30
2019-03-09T02:14:52.528Z,992.24
2019-03-09T02:16:03.258Z,992.11
2019-03-09T02:17:13.982Z,992.17
2019-03-09T02:18:24.716Z,992.11
2019-03-09T02:19:35.440Z,992.10
2019-03-09T02:20:46.177Z,991.99
2019-03-09T02:21:56.902Z,991.96
2019-03-09T02:23:07.631Z,991.99
2019-03-09T02:24:18.353Z,991.90
2019-03-09T02:25:29.632Z,991.87
2019-03-09T02:26:41.375Z,991.79
2019-03-09T02:27:52.095Z,991.77
2019-03-09T02:29:02.824Z,991.74
2019-03-09T02:30:13.563Z,991.77
2019-03-09T02:31:24.301Z,991.74
2019-03-09T02:32:35.040Z,991.75
2019-03-09T02:33:45.762Z,991.71
2019-03-09T02:34:56.503Z,991.68
2019-03-09T02:36:07.239Z,991.61
2019-03-09T02:37:17.980Z,991.63
2019-03-09T02:38:29.775Z,991.63
2019-03-09T02:39:40.452Z,991.54
2019-03-09T02:40:51.189Z,991.55
2019-03-09T02:42:01.920Z,991.48
2019-03-09T02:43:12.665Z,991.50
2019-03-09T02:44:23.409Z,991.47
2019-03-09T02:45:34.150Z,991.44
2019-03-09T02:46:44.887Z,991.40
2019-03-09T02:47:55.624Z,991.35
2019-03-09T02:49:06.358Z,991.32
2019-03-09T02:50:17.096Z,991.30
2019-03-09T02:51:36.252Z,991.27
2019-03-09T02:52:46.996Z,991.33
2019-03-09T02:53:57.737Z,991.33
2019-03-09T02:55:08.474Z,991.45
2019-03-09T02:56:19.214Z,991.38
2019-03-09T02:57:29.968Z,991.35
2019-03-09T02:58:40.699Z,991.40
2019-03-09T02:59:51.440Z,991.43
2019-03-09T03:01:02.192Z,991.35
2019-03-09T03:02:12.920Z,991.35
2019-03-09T03:03:24.159Z,991.35
2019-03-09T03:04:34.894Z,991.40
2019-03-09T03:05:45.636Z,991.42
2019-03-09T03:06:56.382Z,991.48
2019-03-09T03:08:07.118Z,991.42
2019-03-09T03:09:17.859Z,991.42
2019-03-09T03:10:28.786Z,991.41
2019-03-09T03:11:39.530Z,991.33
2019-03-09T03:12:50.264Z,991.37
2019-03-09T03:14:00.993Z,991.34
2019-03-09T03:15:12.733Z,991.32
2019-03-09T03:16:23.467Z,991.42
2019-03-09T03:17:34.206Z,991.43
2019-03-09T03:18:44.938Z,991.45
2019-03-09T03:19:55.679Z,991.46
2019-03-09T03:21:06.411Z,991.44
2019-03-09T03:22:17.157Z,991.51
2019-03-09T03:23:27.887Z,991.53
2019-03-09T03:24:39.114Z,991.53
2019-03-09T03:25:49.846Z,991.50
2019-03-09T03:27:00.585Z,991.54
2019-03-09T03:28:11.631Z,991.60
2019-03-09T03:29:22.354Z,991.60
2019-03-09T03:30:33.087Z,991.65
2019-03-09T03:31:43.823Z,991.62
2019-03-09T03:32:54.554Z,991.63
2019-03-09T03:34:05.295Z,991.71
2019-03-09T03:35:16.023Z,991.71
2019-03-09T03:36:26.753Z,991.73
2019-03-09T03:37:37.493Z,991.75
2019-03-09T03:38:48.237Z,991.80
2019-03-09T03:39:58.962Z,991.84
2019-03-09T03:41:09.695Z,991.86
2019-03-09T03:42:20.431Z,991.85
2019-03-09T03:43:31.177Z,991.83
2019-03-09T03:44:41.898Z,991.89
2019-03-09T03:45:52.683Z,991.92
2019-03-09T03:47:03.380Z,991.97
2019-03-09T03:48:14.120Z,991.92
2019-03-09T03:49:24.856Z,991.95
2019-03-09T03:50:35.594Z,991.96
2019-03-09T03:51:46.329Z,991.94
2019-03-09T03:52:57.064Z,991.98
2019-03-09T03:54:07.793Z,992.00
2019-03-09T03:55:18.519Z,992.01
2019-03-09T03:56:30.261Z,992.03
2019-03-09T03:57:40.998Z,992.07
2019-03-09T03:58:51.727Z,992.04
2019-03-09T04:00:02.617Z,992.10
2019-03-09T04:01:13.350Z,992.10
2019-03-09T04:02:24.092Z,992.07
2019-03-09T04:03:34.815Z,992.04
2019-03-09T04:04:45.570Z,992.09
2019-03-09T04:05:56.269Z,991.99
2019-03-09T04:07:07.008Z,992.13
2019-03-09T04:08:19.226Z,992.12
2019-03-09T04:09:29.990Z,992.04
2019-03-09T04:10:40.701Z,992.16
2019-03-09T04:11:51.443Z,992.19
2019-03-09T04:13:02.176Z,992.11
2019-03-09T04:14:12.908Z,992.17
2019-03-09T04:15:23.642Z,992.11
2019-03-09T04:16:34.373Z,992.08
2019-03-09T04:17:45.107Z,992.08
2019-03-09T04:18:55.837Z,992.09
2019-03-09T04:20:07.559Z,992.22
2019-03-09T04:21:18.287Z,992.28
2019-03-09T04:22:29.026Z,992.19
2019-03-09T04:23:39.757Z,992.15
2019-03-09T04:24:50.494Z,992.13
2019-03-09T04:26:01.214Z,992.13
2019-03-09T04:27:11.950Z,992.15
2019-03-09T04:28:22.689Z,992.17
2019-03-09T04:29:33.422Z,992.21
2019-03-09T04:30:44.139Z,992.19
2019-03-09T04:31:54.877Z,992.19
2019-03-09T04:33:05.613Z,992.25
2019-03-09T04:34:16.337Z,992.19
2019-03-09T04:35:27.070Z,992.22
2019-03-09T04:36:38.299Z,992.20
2019-03-09T04:37:49.025Z,992.26
2019-03-09T04:38:59.758Z,992.33
2019-03-09T04:40:10.636Z,992.40
2019-03-09T04:41:21.367Z,992.44
2019-03-09T04:42:32.103Z,992.50
2019-03-09T04:43:42.844Z,992.51
2019-03-09T04:44:53.572Z,992.44
2019-03-09T04:46:04.302Z,992.47
2019-03-09T04:47:15.040Z,992.50
2019-03-09T04:48:25.770Z,992.58
2019-03-09T04:49:36.500Z,992.42
2019-03-09T04:50:47.232Z,992.55
2019-03-09T04:51:57.968Z,992.57
2019-03-09T04:53:08.707Z,992.56
2019-03-09T04:54:19.429Z,992.54
2019-03-09T04:55:30.157Z,992.43
2019-03-09T04:56:40.898Z,992.47
2019-03-09T04:57:51.639Z,992.49
2019-03-09T04:59:03.367Z,992.54
2019-03-09T05:00:14.096Z,992.47
2019-03-09T05:01:24.822Z,992.49
2019-03-09T05:02:35.574Z,992.49
2019-03-09T05:03:46.311Z,992.52
2019-03-09T05:04:58.835Z,992.49
2019-03-09T05:06:08.251Z,992.46
2019-03-09T05:07:18.982Z,992.41
2019-03-09T05:08:29.723Z,992.49
2019-03-09T05:09:40.621Z,992.46
2019-03-09T05:10:51.371Z,992.50
2019-03-09T05:12:02.066Z,992.45
2019-03-09T05:13:12.819Z,992.43
2019-03-09T05:14:23.561Z,992.48
2019-03-09T05:15:34.282Z,992.49
2019-03-09T05:16:45.010Z,992.43
2019-03-09T05:17:55.750Z,992.39
2019-03-09T05:19:06.977Z,992.48
2019-03-09T05:20:17.706Z,992.47
2019-03-09T05:21:28.424Z,992.51
2019-03-09T05:22:39.159Z,992.52
2019-03-09T05:23:49.896Z,992.48
2019-03-09T05:25:01.109Z,992.47
2019-03-09T05:26:11.847Z,992.45
2019-03-09T05:27:22.587Z,992.59
2019-03-09T05:28:33.340Z,992.63
2019-03-09T05:29:44.059Z,992.60
2019-03-09T05:30:54.786Z,992.65
2019-03-09T05:32:05.512Z,992.65
2019-03-09T05:33:16.237Z,992.61
2019-03-09T05:34:26.974Z,992.62
2019-03-09T05:35:37.701Z,992.46
2019-03-09T05:36:48.422Z,992.39
2019-03-09T05:37:59.165Z,992.57
2019-03-09T05:39:10.388Z,992.58
2019-03-09T05:40:21.117Z,992.65
2019-03-09T05:41:31.842Z,992.69
2019-03-09T05:42:43.072Z,992.68
2019-03-09T05:43:53.809Z,992.68
2019-03-09T05:45:04.531Z,992.58
2019-03-09T05:46:15.270Z,992.70
2019-03-09T05:47:25.999Z,992.82
2019-03-09T05:48:36.722Z,992.77
2019-03-09T05:49:47.776Z,992.80
2019-03-09T05:50:58.666Z,992.84
2019-03-09T05:52:09.390Z,992.84
2019-03-09T05:53:20.126Z,992.91
2019-03-09T05:54:30.868Z,992.90
2019-03-09T05:55:41.594Z,992.90
2019-03-09T05:56:52.336Z,992.86
2019-03-09T05:58:03.061Z,992.63
2019-03-09T05:59:13.803Z,992.66
2019-03-09T06:00:24.528Z,992.68
2019-03-09T06:01:35.272Z,992.68
2019-03-09T06:02:46.006Z,992.60
2019-03-09T06:03:56.732Z,992.55
2019-03-09T06:05:07.469Z,992.65
2019-03-09T06:06:18.688Z,992.62
2019-03-09T06:07:29.419Z,992.64
2019-03-09T06:08:40.144Z,992.59
2019-03-09T06:09:50.878Z,992.64
2019-03-09T06:11:01.608Z,992.74
2019-03-09T06:12:12.334Z,992.77
2019-03-09T06:13:23.069Z,992.78
2019-03-09T06:14:33.804Z,992.66
2019-03-09T06:15:44.543Z,992.73
2019-03-09T06:16:55.267Z,992.79
2019-03-09T06:18:06.494Z,992.80
2019-03-09T06:19:16.723Z,992.81
2019-03-09T06:20:27.462Z,992.82
2019-03-09T06:21:38.190Z,992.94
2019-03-09T06:22:48.926Z,992.82
2019-03-09T06:24:00.664Z,992.84
2019-03-09T06:25:11.395Z,992.81
2019-03-09T06:26:22.138Z,992.76
2019-03-09T06:27:32.872Z,992.77
2019-03-09T06:28:43.603Z,992.82
2019-03-09T06:29:54.337Z,992.75
2019-03-09T06:31:05.080Z,992.71
2019-03-09T06:32:15.818Z,992.73
2019-03-09T06:33:26.552Z,992.68
2019-03-09T06:34:37.773Z,992.82
2019-03-09T06:35:48.514Z,992.94
2019-03-09T06:36:59.243Z,992.96
2019-03-09T06:38:09.979Z,993.04
2019-03-09T06:39:20.709Z,993.12
2019-03-09T06:40:31.441Z,993.18
2019-03-09T06:41:42.181Z,993.22
2019-03-09T06:42:52.919Z,993.29
2019-03-09T06:44:03.667Z,993.34
2019-03-09T06:45:14.390Z,993.31
2019-03-09T06:46:25.135Z,993.32
2019-03-09T06:47:35.881Z,993.37
2019-03-09T06:48:46.633Z,993.34
2019-03-09T06:49:57.352Z,993.28
2019-03-09T06:51:08.106Z,993.31
2019-03-09T06:52:18.854Z,993.26
2019-03-09T06:53:29.588Z,993.38
2019-03-09T06:54:40.324Z,993.46
2019-03-09T06:55:51.064Z,993.54
2019-03-09T06:57:01.806Z,993.62
2019-03-09T06:58:13.570Z,993.52
2019-03-09T06:59:23.282Z,993.59
2019-03-09T07:00:34.025Z,993.43
2019-03-09T07:01:44.770Z,993.47
2019-03-09T07:02:55.516Z,993.49
2019-03-09T07:04:06.264Z,993.39
2019-03-09T07:05:17.001Z,993.43
2019-03-09T07:06:27.751Z,993.47
2019-03-09T07:07:38.510Z,993.47
2019-03-09T07:08:49.252Z,993.52
2019-03-09T07:10:00.000Z,993.46
2019-03-09T07:11:11.242Z,993.42
2019-03-09T07:12:22.004Z,993.43
2019-03-09T07:13:32.735Z,993.44
2019-03-09T07:14:43.472Z,993.50
2019-03-09T07:15:54.218Z,993.52
2019-03-09T07:17:04.965Z,993.57
2019-03-09T07:18:15.710Z,993.55
2019-03-09T07:19:26.958Z,993.57
2019-03-09T07:20:37.705Z,993.57
2019-03-09T07:21:48.443Z,993.59
2019-03-09T07:22:59.204Z,993.69
2019-03-09T07:24:09.959Z,993.62
2019-03-09T07:25:20.698Z,993.60
2019-03-09T07:26:31.444Z,993.59
2019-03-09T07:27:42.197Z,993.59
2019-03-09T07:28:52.939Z,993.54
2019-03-09T07:30:03.695Z,993.54
2019-03-09T07:31:14.453Z,993.48
2019-03-09T07:32:25.208Z,993.45
2019-03-09T07:33:35.952Z,993.47
2019-03-09T07:34:46.694Z,993.50
2019-03-09T07:35:57.442Z,993.54
2019-03-09T07:37:08.199Z,993.50
2019-03-09T07:38:18.967Z,993.49
2019-03-09T07:39:29.711Z,993.54
2019-03-09T07:40:40.627Z,993.54
2019-03-09T07:41:51.376Z,993.46
2019-03-09T07:43:04.126Z,993.61
2019-03-09T07:44:13.371Z,993.62
2019-03-09T07:45:24.119Z,993.61
2019-03-09T07:46:34.911Z,993.60
2019-03-09T07:47:46.156Z,993.67
2019-03-09T07:48:57.756Z,993.77
2019-03-09T07:50:08.510Z,993.81
2019-03-09T07:51:19.268Z,993.82
2019-03-09T07:52:30.027Z,993.84
2019-03-09T07:53:41.290Z,993.89
2019-03-09T07:54:52.253Z,993.93
2019-03-09T07:56:02.795Z,993.86
2019-03-09T07:57:13.867Z,993.97
2019-03-09T07:58:25.123Z,993.97
2019-03-09T07:59:35.879Z,993.99
2019-03-09T08:00:46.650Z,993.99
2019-03-09T08:01:57.396Z,994.03
2019-03-09T08:03:08.162Z,994.05
2019-03-09T08:04:18.930Z,994.06
2019-03-09T08:05:29.703Z,994.04
2019-03-09T08:06:40.638Z,993.99
2019-03-09T08:07:51.397Z,994.03
2019-03-09T08:09:02.667Z,994.00
2019-03-09T08:10:13.440Z,994.02
2019-03-09T08:11:24.206Z,994.05
2019-03-09T08:12:34.975Z,994.10
2019-03-09T08:13:45.750Z,994.13
2019-03-09T08:14:56.558Z,994.22
2019-03-09T08:16:07.839Z,994.21
2019-03-09T08:17:19.815Z,994.17
2019-03-09T08:18:30.603Z,994.20
2019-03-09T08:19:41.400Z,994.11
2019-03-09T08:20:52.187Z,994.05
2019-03-09T08:22:02.980Z,994.09
2019-03-09T08:23:13.765Z,994.01
2019-03-09T08:24:24.566Z,993.80
2019-03-09T08:25:35.363Z,993.93
2019-03-09T08:26:46.166Z,993.84
2019-03-09T08:27:56.970Z,993.83
2019-03-09T08:29:08.261Z,993.76
2019-03-09T08:30:19.076Z,993.60
2019-03-09T08:31:29.883Z,993.53
2019-03-09T08:32:40.699Z,993.44
2019-03-09T08:33:51.538Z,993.40
2019-03-09T08:35:02.352Z,993.28
2019-03-09T08:36:13.169Z,993.32
2019-03-09T08:37:23.993Z,993.17
2019-03-09T08:38:34.829Z,993.08
2019-03-09T08:39:45.652Z,992.97
2019-03-09T08:40:56.498Z,992.99
2019-03-09T08:42:07.339Z,993.02
2019-03-09T08:43:18.194Z,992.90
2019-03-09T08:44:29.046Z,992.90
2019-03-09T08:45:39.878Z,992.81
2019-03-09T08:46:50.730Z,992.79
2019-03-09T08:48:01.587Z,992.71
2019-03-09T08:49:12.477Z,992.65
2019-03-09T08:50:23.311Z,992.80
2019-03-09T08:51:34.177Z,992.80
2019-03-09T08:52:45.043Z,992.64
2019-03-09T08:53:55.950Z,992.57
2019-03-09T08:55:06.792Z,992.57
2019-03-09T08:56:17.693Z,992.57
2019-03-09T08:57:28.575Z,992.69
2019-03-09T08:58:39.396Z,992.71
2019-03-09T08:59:50.262Z,992.79
2019-03-09T09:01:01.128Z,992.76
2019-03-09T09:02:11.980Z,992.81
2019-03-09T09:03:23.381Z,992.90
2019-03-09T09:04:34.800Z,992.85
2019-03-09T09:05:45.066Z,992.94
2019-03-09T09:06:55.985Z,992.82
2019-03-09T09:08:06.859Z,992.84
2019-03-09T09:09:17.727Z,992.72
2019-03-09T09:10:28.589Z,992.82
2019-03-09T09:11:39.447Z,992.87
2019-03-09T09:12:50.805Z,992.91
2019-03-09T09:14:01.674Z,992.91
2019-03-09T09:15:14.776Z,992.93
2019-03-09T09:16:23.401Z,992.80
2019-03-09T09:17:34.260Z,992.76
2019-03-09T09:18:45.120Z,992.81
2019-03-09T09:19:55.978Z,992.74
2019-03-09T09:21:06.844Z,992.80
2019-03-09T09:22:18.211Z,992.87
2019-03-09T09:23:29.074Z,992.81
2019-03-09T09:24:39.934Z,992.75
2019-03-09T09:25:50.796Z,992.77
2019-03-09T09:27:01.665Z,992.82
2019-03-09T09:28:13.625Z,992.94
2019-03-09T09:29:24.489Z,992.82
2019-03-09T09:30:35.348Z,992.77
2019-03-09T09:31:46.215Z,992.71
2019-03-09T09:32:57.084Z,992.72
2019-03-09T09:34:07.968Z,992.77
2019-03-09T09:35:18.822Z,992.64
2019-03-09T09:36:29.684Z,992.68
2019-03-09T09:37:41.054Z,992.68
2019-03-09T09:38:51.920Z,992.67
2019-03-09T09:40:02.792Z,992.62
2019-03-09T09:41:13.664Z,992.74
2019-03-09T09:42:25.039Z,992.69
2019-03-09T09:43:36.410Z,992.64
2019-03-09T09:44:47.287Z,992.66
2019-03-09T09:45:58.178Z,992.53
2019-03-09T09:47:09.055Z,992.33
2019-03-09T09:48:19.937Z,992.09
2019-03-09T09:49:31.142Z,991.98
2019-03-09T09:50:42.035Z,991.78
2019-03-09T09:51:52.933Z,991.57
2019-03-09T09:53:03.838Z,991.38
2019-03-09T09:54:15.234Z,991.37
2019-03-09T09:55:26.636Z,991.42
2019-03-09T09:56:37.564Z,991.37
2019-03-09T09:57:48.477Z,991.42
2019-03-09T09:58:59.881Z,991.50
2019-03-09T10:00:10.787Z,991.69
2019-03-09T10:01:21.703Z,991.73
2019-03-09T10:02:32.631Z,991.71
2019-03-09T10:03:44.045Z,991.76
2019-03-09T10:04:54.965Z,991.92
2019-03-09T10:06:06.381Z,991.94
2019-03-09T10:07:17.798Z,991.94
2019-03-09T10:08:29.229Z,991.93
2019-03-09T10:09:40.150Z,991.80
2019-03-09T10:10:51.638Z,991.76
2019-03-09T10:12:03.049Z,991.63
2019-03-09T10:13:14.483Z,991.70
2019-03-09T10:14:25.895Z,991.54
2019-03-09T10:15:36.814Z,991.52
2019-03-09T10:16:48.234Z,991.57
2019-03-09T10:17:59.676Z,991.58
2019-03-09T10:19:11.300Z,991.64
2019-03-09T10:20:22.008Z,991.66
2019-03-09T10:21:32.928Z,991.67
2019-03-09T10:22:43.906Z,991.69
2019-03-09T10:23:54.801Z,991.69
2019-03-09T10:25:05.729Z,991.65
2019-03-09T10:26:16.659Z,991.61
2019-03-09T10:27:27.590Z,991.65
2019-03-09T10:28:38.538Z,991.73
2019-03-09T10:29:49.632Z,991.65
2019-03-09T10:31:00.578Z,991.62
2019-03-09T10:32:11.507Z,991.62
2019-03-09T10:33:24.143Z,991.65
2019-03-09T10:34:33.401Z,991.67
2019-03-09T10:35:44.342Z,991.82
2019-03-09T10:36:55.293Z,991.87
2019-03-09T10:38:06.241Z,991.84
2019-03-09T10:39:17.201Z,991.91
2019-03-09T10:40:28.626Z,991.67
2019-03-09T10:41:39.571Z,991.58
2019-03-09T10:42:50.531Z,991.55
2019-03-09T10:44:01.658Z,991.54
2019-03-09T10:45:13.099Z,991.59
2019-03-09T10:46:25.052Z,991.68
2019-03-09T10:47:36.021Z,991.60
2019-03-09T10:48:46.984Z,991.65
2019-03-09T10:49:57.952Z,991.59
2019-03-09T10:51:08.909Z,991.43
2019-03-09T10:52:20.358Z,991.32
2019-03-09T10:53:31.815Z,991.43
2019-03-09T10:54:42.789Z,991.52
2019-03-09T10:55:53.749Z,991.63
2019-03-09T10:57:05.196Z,991.70
2019-03-09T10:58:16.150Z,991.72
2019-03-09T10:59:27.117Z,991.74
2019-03-09T11:00:38.082Z,991.77
2019-03-09T11:01:49.032Z,991.85
2019-03-09T11:02:59.992Z,991.94
2019-03-09T11:04:10.950Z,991.78
2019-03-09T11:05:21.918Z,991.59
2019-03-09T11:06:32.888Z,991.69
2019-03-09T11:07:44.294Z,991.76
2019-03-09T11:08:55.256Z,991.74
2019-03-09T11:10:06.220Z,991.79
2019-03-09T11:11:17.163Z,991.79
2019-03-09T11:12:28.118Z,991.93
2019-03-09T11:13:39.077Z,991.99
2019-03-09T11:14:50.036Z,992.11
2019-03-09T11:16:00.979Z,992.05
2019-03-09T11:17:11.928Z,992.03
2019-03-09T11:18:22.879Z,991.96
2019-03-09T11:19:33.829Z,991.78
2019-03-09T11:20:44.796Z,991.70
2019-03-09T11:21:55.782Z,991.48
2019-03-09T11:23:06.740Z,991.22
2019-03-09T11:24:17.701Z,991.08
2019-03-09T11:25:28.671Z,991.06
2019-03-09T11:26:39.639Z,991.05
2019-03-09T11:27:50.606Z,990.91
2019-03-09T11:29:01.572Z,990.95
2019-03-09T11:30:12.553Z,990.90
2019-03-09T11:31:23.535Z,990.86
2019-03-09T11:32:34.520Z,990.65
2019-03-09T11:33:45.503Z,990.65
2019-03-09T11:34:56.486Z,990.58
2019-03-09T11:36:07.641Z,990.56
2019-03-09T11:37:18.621Z,990.52
2019-03-09T11:38:29.618Z,990.22
2019-03-09T11:39:40.612Z,990.21
2019-03-09T11:40:57.335Z,990.17
2019-03-09T11:42:02.621Z,990.12
2019-03-09T11:43:13.622Z,990.03
2019-03-09T11:44:24.621Z,990.00
2019-03-09T11:45:36.123Z,990.27
2019-03-09T11:46:47.132Z,990.48
2019-03-09T11:47:58.132Z,990.90
2019-03-09T11:49:09.127Z,991.17
2019-03-09T11:50:21.139Z,991.27
2019-03-09T11:51:32.138Z,991.44
2019-03-09T11:52:43.135Z,991.58
2019-03-09T11:53:54.124Z,991.71
2019-03-09T11:55:05.140Z,991.82
2019-03-09T11:56:16.095Z,991.85
2019-03-09T11:57:27.075Z,991.85
2019-03-09T11:58:38.301Z,991.91
2019-03-09T11:59:49.027Z,991.97
2019-03-09T12:01:00.002Z,992.15
2019-03-09T12:02:10.978Z,992.09
2019-03-09T12:03:21.937Z,992.13
2019-03-09T12:04:32.908Z,992.18
2019-03-09T12:05:43.875Z,992.24
2019-03-09T12:06:54.840Z,992.21
2019-03-09T12:08:05.792Z,992.12
2019-03-09T12:09:16.753Z,992.17
2019-03-09T12:10:27.706Z,992.23
2019-03-09T12:11:38.672Z,992.25
2019-03-09T12:12:49.626Z,992.19
2019-03-09T12:14:00.583Z,991.96
2019-03-09T12:15:11.539Z,991.84
2019-03-09T12:16:22.498Z,991.64
2019-03-09T12:17:33.444Z,991.54
2019-03-09T12:18:44.388Z,991.46
2019-03-09T12:19:55.333Z,991.65
2019-03-09T12:21:06.291Z,991.61
2019-03-09T12:22:17.251Z,991.63
2019-03-09T12:23:28.205Z,991.48
2019-03-09T12:24:39.163Z,991.52
2019-03-09T12:25:50.109Z,991.53
2019-03-09T12:27:01.063Z,991.63
2019-03-09T12:28:12.006Z,991.71
2019-03-09T12:29:22.963Z,991.77
2019-03-09T12:30:34.409Z,991.91
2019-03-09T12:31:45.372Z,991.91
2019-03-09T12:32:56.815Z,991.97
2019-03-09T12:34:07.762Z,992.25
2019-03-09T12:35:18.719Z,992.06
2019-03-09T12:36:29.673Z,992.04
2019-03-09T12:37:40.639Z,992.07
2019-03-09T12:38:51.595Z,992.13
2019-03-09T12:40:04.033Z,992.02
2019-03-09T12:41:14.983Z,992.10
2019-03-09T12:42:25.940Z,991.94
2019-03-09T12:43:36.887Z,991.88
2019-03-09T12:44:47.840Z,991.69
2019-03-09T12:45:58.795Z,991.68
2019-03-09T12:47:09.758Z,991.65
2019-03-09T12:48:21.216Z,991.62
2019-03-09T12:49:32.180Z,991.47
2019-03-09T12:50:43.147Z,991.09
2019-03-09T12:51:54.111Z,990.93
2019-03-09T12:53:05.081Z,990.89
2019-03-09T12:54:16.046Z,990.91
2019-03-09T12:55:27.015Z,990.78
2019-03-09T12:56:38.980Z,990.56
2019-03-09T12:57:49.954Z,990.19
2019-03-09T12:59:01.625Z,990.03
2019-03-09T13:00:12.619Z,989.92
2019-03-09T13:01:23.588Z,989.96
2019-03-09T13:02:34.563Z,989.85
2019-03-09T13:03:45.539Z,989.77
2019-03-09T13:04:56.532Z,989.15
2019-03-09T13:06:07.536Z,988.44
2019-03-09T13:07:18.538Z,988.37
2019-03-09T13:08:29.559Z,988.07
2019-03-09T13:09:40.577Z,988.00
2019-03-09T13:10:52.086Z,988.37
2019-03-09T13:12:03.101Z,988.35
2019-03-09T13:13:14.142Z,988.09
2019-03-09T13:14:25.686Z,987.94
2019-03-09T13:15:36.734Z,987.67
2019-03-09T13:16:47.791Z,987.32
2019-03-09T13:17:58.863Z,986.75
2019-03-09T13:19:09.949Z,986.46
2019-03-09T13:20:21.041Z,986.31
2019-03-09T13:21:32.145Z,986.03
2019-03-09T13:22:43.277Z,985.47
2019-03-09T13:23:54.419Z,985.39
2019-03-09T13:25:05.573Z,985.39
2019-03-09T13:26:16.733Z,985.73
2019-03-09T13:27:27.903Z,985.92
2019-03-09T13:28:39.097Z,985.88
2019-03-09T13:29:50.300Z,985.98
2019-03-09T13:31:01.506Z,985.91
2019-03-09T13:32:13.228Z,985.76
2019-03-09T13:33:24.466Z,986.00
2019-03-09T13:34:35.695Z,986.39
2019-03-09T13:35:47.424Z,986.58
2019-03-09T13:36:58.679Z,986.34
2019-03-09T13:38:09.934Z,986.16
2019-03-09T13:39:21.194Z,986.21
2019-03-09T13:40:32.950Z,986.23
2019-03-09T13:41:44.183Z,986.88
2019-03-09T13:42:55.432Z,987.39
2019-03-09T13:44:06.666Z,987.34
2019-03-09T13:45:17.888Z,987.44
2019-03-09T13:46:29.097Z,987.79
2019-03-09T13:47:40.324Z,988.04
2019-03-09T13:48:51.552Z,988.20
2019-03-09T13:50:02.769Z,987.83
2019-03-09T13:51:13.992Z,987.87
2019-03-09T13:52:25.211Z,987.90
2019-03-09T13:53:36.932Z,987.73
2019-03-09T13:54:48.160Z,987.67
2019-03-09T13:55:59.392Z,987.79
2019-03-09T13:57:10.622Z,987.89
2019-03-09T13:58:21.871Z,987.64
2019-03-09T13:59:33.123Z,987.62
2019-03-09T14:00:44.461Z,987.67
2019-03-09T14:01:55.706Z,987.52
2019-03-09T14:03:06.958Z,987.21
2019-03-09T14:04:19.226Z,987.28
2019-03-09T14:05:30.483Z,987.14
2019-03-09T14:06:41.743Z,987.26
2019-03-09T14:07:52.970Z,987.52
2019-03-09T14:09:04.197Z,987.93
2019-03-09T14:10:15.417Z,988.19
2019-03-09T14:11:26.619Z,988.24
2019-03-09T14:12:37.806Z,988.31
2019-03-09T14:13:48.993Z,988.88
2019-03-09T14:15:00.257Z,988.78
2019-03-09T14:16:11.349Z,988.96
2019-03-09T14:17:22.505Z,988.95
2019-03-09T14:18:33.646Z,989.17
2019-03-09T14:19:44.788Z,989.35
2019-03-09T14:20:55.906Z,989.55
2019-03-09T14:22:07.017Z,989.70
2019-03-09T14:23:19.632Z,989.87
2019-03-09T14:24:31.214Z,989.90
2019-03-09T14:25:42.302Z,990.01
2019-03-09T14:26:53.378Z,990.31
2019-03-09T14:28:04.446Z,990.02
2019-03-09T14:29:15.502Z,989.91
2019-03-09T14:30:26.565Z,990.05
2019-03-09T14:31:38.093Z,990.13
2019-03-09T14:32:49.137Z,990.34
2019-03-09T14:34:00.163Z,990.29
2019-03-09T14:35:11.201Z,990.41
2019-03-09T14:36:22.228Z,990.37
2019-03-09T14:37:33.240Z,990.49
2019-03-09T14:38:44.257Z,990.49
2019-03-09T14:39:55.261Z,990.49
2019-03-09T14:41:06.770Z,990.29
2019-03-09T14:42:18.260Z,990.33
2019-03-09T14:43:29.260Z,990.46
2019-03-09T14:44:40.253Z,990.33